sensor_id;sensor_type;location;lat;lon;timestamp;temperature;humidity
75210;DHT22;63796;53.136;14.882;2023-03-03T00:01:57;3.10;99.90
75210;DHT22;63796;53.136;14.882;2023-03-03T00:04:25;3.10;99.90
75210;DHT22;63796;53.136;14.882;2023-03-03T00:06:52;3.10;99.90
75210;DHT22;63796;53.136;14.882;2023-03-03T00:09:19;3.10;99.90
75210;DHT22;63796;53.136;14.882;2023-03-03T00:11:47;3.10;99.90
75210;DHT22;63796;53.136;14.882;2023-03-03T00:14:30;3.10;99.90
75210;DHT22;63796;53.136;14.882;2023-03-03T00:17:05;3.10;99.90
75210;DHT22;63796;53.136;14.882;2023-03-03T00:19:45;3.10;99.90
75210;DHT22;63796;53.136;14.882;2023-03-03T00:22:14;3.10;99.90
75210;DHT22;63796;53.136;14.882;2023-03-03T00:24:53;3.10;99.90
75210;DHT22;63796;53.136;14.882;2023-03-03T00:27:30;3.00;99.90
75210;DHT22;63796;53.136;14.882;2023-03-03T00:30:02;3.00;99.90
75210;DHT22;63796;53.136;14.882;2023-03-03T00:32:30;3.00;99.90
75210;DHT22;63796;53.136;14.882;2023-03-03T00:37:54;3.00;99.90
75210;DHT22;63796;53.136;14.882;2023-03-03T00:40:25;3.10;99.90
75210;DHT22;63796;53.136;14.882;2023-03-03T00:42:58;3.00;99.90
75210;DHT22;63796;53.136;14.882;2023-03-03T00:50:50;2.90;99.90
75210;DHT22;63796;53.136;14.882;2023-03-03T00:53:20;2.90;99.90
75210;DHT22;63796;53.136;14.882;2023-03-03T00:55:49;3.00;99.90
75210;DHT22;63796;53.136;14.882;2023-03-03T00:58:19;3.00;99.90
75210;DHT22;63796;53.136;14.882;2023-03-03T01:00:48;3.10;99.90
75210;DHT22;63796;53.136;14.882;2023-03-03T01:03:19;3.00;99.90
75210;DHT22;63796;53.136;14.882;2023-03-03T01:05:48;3.00;99.90
75210;DHT22;63796;53.136;14.882;2023-03-03T01:08:16;3.00;99.90
75210;DHT22;63796;53.136;14.882;2023-03-03T01:10:46;2.90;99.90
75210;DHT22;63796;53.136;14.882;2023-03-03T01:13:19;2.90;99.90
75210;DHT22;63796;53.136;14.882;2023-03-03T01:15:48;2.90;99.90
75210;DHT22;63796;53.136;14.882;2023-03-03T01:18:16;3.00;99.90
75210;DHT22;63796;53.136;14.882;2023-03-03T01:20:44;2.90;99.90
75210;DHT22;63796;53.136;14.882;2023-03-03T01:23:11;2.90;99.90
75210;DHT22;63796;53.136;14.882;2023-03-03T01:25:39;2.90;99.90
75210;DHT22;63796;53.136;14.882;2023-03-03T01:28:06;2.90;99.90
75210;DHT22;63796;53.136;14.882;2023-03-03T01:30:34;2.80;99.90
75210;DHT22;63796;53.136;14.882;2023-03-03T01:33:01;2.90;99.90
75210;DHT22;63796;53.136;14.882;2023-03-03T01:35:29;2.80;99.90
75210;DHT22;63796;53.136;14.882;2023-03-03T01:37:57;2.80;99.90
75210;DHT22;63796;53.136;14.882;2023-03-03T01:40:26;2.70;99.90
75210;DHT22;63796;53.136;14.882;2023-03-03T01:42:57;2.70;99.90
75210;DHT22;63796;53.136;14.882;2023-03-03T01:45:29;2.80;99.90
75210;DHT22;63796;53.136;14.882;2023-03-03T01:50:30;2.90;99.90
75210;DHT22;63796;53.136;14.882;2023-03-03T01:52:58;2.80;99.90
75210;DHT22;63796;53.136;14.882;2023-03-03T01:55:29;2.70;99.90
75210;DHT22;63796;53.136;14.882;2023-03-03T01:58:06;2.80;99.90
75210;DHT22;63796;53.136;14.882;2023-03-03T02:00:37;2.70;99.90
75210;DHT22;63796;53.136;14.882;2023-03-03T02:03:06;2.70;99.90
75210;DHT22;63796;53.136;14.882;2023-03-03T02:05:35;2.80;99.90
75210;DHT22;63796;53.136;14.882;2023-03-03T02:08:02;2.60;99.90
75210;DHT22;63796;53.136;14.882;2023-03-03T02:13:44;2.60;99.90
75210;DHT22;63796;53.136;14.882;2023-03-03T02:16:11;2.60;99.90
75210;DHT22;63796;53.136;14.882;2023-03-03T02:18:39;2.60;99.90
75210;DHT22;63796;53.136;14.882;2023-03-03T02:21:17;2.60;99.90
75210;DHT22;63796;53.136;14.882;2023-03-03T02:23:52;2.60;99.90
75210;DHT22;63796;53.136;14.882;2023-03-03T02:26:23;2.70;99.90
75210;DHT22;63796;53.136;14.882;2023-03-03T02:28:52;2.60;99.90
75210;DHT22;63796;53.136;14.882;2023-03-03T02:31:21;2.50;99.90
75210;DHT22;63796;53.136;14.882;2023-03-03T02:33:50;2.60;99.90
75210;DHT22;63796;53.136;14.882;2023-03-03T02:36:20;2.60;99.90
75210;DHT22;63796;53.136;14.882;2023-03-03T02:39:04;2.60;99.90
75210;DHT22;63796;53.136;14.882;2023-03-03T02:41:45;2.60;99.90
75210;DHT22;63796;53.136;14.882;2023-03-03T02:44:20;2.70;99.90
75210;DHT22;63796;53.136;14.882;2023-03-03T02:46:50;2.60;99.90
75210;DHT22;63796;53.136;14.882;2023-03-03T02:49:20;2.60;99.90
75210;DHT22;63796;53.136;14.882;2023-03-03T02:51:50;2.40;99.90
75210;DHT22;63796;53.136;14.882;2023-03-03T02:54:18;2.50;99.90
75210;DHT22;63796;53.136;14.882;2023-03-03T02:56:47;2.50;99.90
75210;DHT22;63796;53.136;14.882;2023-03-03T02:59:14;2.50;99.90
75210;DHT22;63796;53.136;14.882;2023-03-03T03:01:42;2.50;99.90
75210;DHT22;63796;53.136;14.882;2023-03-03T03:04:11;2.50;99.90
75210;DHT22;63796;53.136;14.882;2023-03-03T03:06:41;2.50;99.90
75210;DHT22;63796;53.136;14.882;2023-03-03T03:09:09;2.60;99.90
75210;DHT22;63796;53.136;14.882;2023-03-03T03:11:38;2.60;99.90
75210;DHT22;63796;53.136;14.882;2023-03-03T03:14:06;2.50;99.90
75210;DHT22;63796;53.136;14.882;2023-03-03T03:16:36;2.30;99.90
75210;DHT22;63796;53.136;14.882;2023-03-03T03:19:05;2.30;99.90
75210;DHT22;63796;53.136;14.882;2023-03-03T03:21:32;2.30;99.90
75210;DHT22;63796;53.136;14.882;2023-03-03T03:24:00;2.30;99.90
75210;DHT22;63796;53.136;14.882;2023-03-03T03:26:27;2.40;99.90
75210;DHT22;63796;53.136;14.882;2023-03-03T03:28:54;2.20;99.90
75210;DHT22;63796;53.136;14.882;2023-03-03T03:31:22;2.30;99.90
75210;DHT22;63796;53.136;14.882;2023-03-03T03:33:49;2.40;99.90
75210;DHT22;63796;53.136;14.882;2023-03-03T03:36:18;2.30;99.90
75210;DHT22;63796;53.136;14.882;2023-03-03T03:38:45;2.40;99.90
75210;DHT22;63796;53.136;14.882;2023-03-03T03:41:12;2.40;99.90
75210;DHT22;63796;53.136;14.882;2023-03-03T03:43:40;2.50;99.90
75210;DHT22;63796;53.136;14.882;2023-03-03T03:46:07;2.50;99.90
75210;DHT22;63796;53.136;14.882;2023-03-03T03:48:35;2.50;99.90
75210;DHT22;63796;53.136;14.882;2023-03-03T03:51:02;2.50;99.90
75210;DHT22;63796;53.136;14.882;2023-03-03T03:53:30;2.40;99.90
75210;DHT22;63796;53.136;14.882;2023-03-03T03:55:58;2.40;99.90
75210;DHT22;63796;53.136;14.882;2023-03-03T03:58:25;2.30;99.90
75210;DHT22;63796;53.136;14.882;2023-03-03T04:00:52;2.30;99.90
75210;DHT22;63796;53.136;14.882;2023-03-03T04:03:20;2.40;99.90
75210;DHT22;63796;53.136;14.882;2023-03-03T04:05:47;2.40;99.90
75210;DHT22;63796;53.136;14.882;2023-03-03T04:08:18;2.40;99.90
75210;DHT22;63796;53.136;14.882;2023-03-03T04:10:45;2.20;99.90
75210;DHT22;63796;53.136;14.882;2023-03-03T04:13:13;2.30;99.90
75210;DHT22;63796;53.136;14.882;2023-03-03T04:15:40;2.30;99.90
75210;DHT22;63796;53.136;14.882;2023-03-03T04:18:08;2.30;99.90
75210;DHT22;63796;53.136;14.882;2023-03-03T04:20:35;2.20;99.90
75210;DHT22;63796;53.136;14.882;2023-03-03T04:23:02;2.20;99.90
75210;DHT22;63796;53.136;14.882;2023-03-03T04:25:30;2.20;99.90
75210;DHT22;63796;53.136;14.882;2023-03-03T04:27:57;2.20;99.90
75210;DHT22;63796;53.136;14.882;2023-03-03T04:30:25;2.30;99.90
75210;DHT22;63796;53.136;14.882;2023-03-03T04:32:52;2.30;99.90
75210;DHT22;63796;53.136;14.882;2023-03-03T04:35:20;2.40;99.90
75210;DHT22;63796;53.136;14.882;2023-03-03T04:37:47;2.30;99.90
75210;DHT22;63796;53.136;14.882;2023-03-03T04:40:14;2.40;99.90
75210;DHT22;63796;53.136;14.882;2023-03-03T04:42:43;2.40;99.90
75210;DHT22;63796;53.136;14.882;2023-03-03T04:45:10;2.30;99.90
75210;DHT22;63796;53.136;14.882;2023-03-03T04:47:37;2.20;99.90
75210;DHT22;63796;53.136;14.882;2023-03-03T04:50:05;2.20;99.90
75210;DHT22;63796;53.136;14.882;2023-03-03T04:52:33;2.20;99.90
75210;DHT22;63796;53.136;14.882;2023-03-03T04:55:01;2.30;99.90
75210;DHT22;63796;53.136;14.882;2023-03-03T04:57:28;2.30;99.90
75210;DHT22;63796;53.136;14.882;2023-03-03T04:59:55;2.30;99.90
75210;DHT22;63796;53.136;14.882;2023-03-03T05:02:23;2.30;99.90
75210;DHT22;63796;53.136;14.882;2023-03-03T05:04:50;2.30;99.90
75210;DHT22;63796;53.136;14.882;2023-03-03T05:07:17;2.20;99.90
75210;DHT22;63796;53.136;14.882;2023-03-03T05:09:45;2.30;99.90
75210;DHT22;63796;53.136;14.882;2023-03-03T05:12:13;2.40;99.90
75210;DHT22;63796;53.136;14.882;2023-03-03T05:14:43;2.30;99.90
75210;DHT22;63796;53.136;14.882;2023-03-03T05:17:10;2.30;99.90
75210;DHT22;63796;53.136;14.882;2023-03-03T05:19:37;2.30;99.90
75210;DHT22;63796;53.136;14.882;2023-03-03T05:22:05;2.40;99.90
75210;DHT22;63796;53.136;14.882;2023-03-03T05:24:33;2.50;99.90
75210;DHT22;63796;53.136;14.882;2023-03-03T05:27:00;2.50;99.90
75210;DHT22;63796;53.136;14.882;2023-03-03T05:29:29;2.50;99.90
75210;DHT22;63796;53.136;14.882;2023-03-03T05:31:57;2.40;99.90
75210;DHT22;63796;53.136;14.882;2023-03-03T05:34:25;2.30;99.90
75210;DHT22;63796;53.136;14.882;2023-03-03T05:36:52;2.30;99.90
75210;DHT22;63796;53.136;14.882;2023-03-03T05:39:19;2.40;99.90
75210;DHT22;63796;53.136;14.882;2023-03-03T05:41:47;2.20;99.90
75210;DHT22;63796;53.136;14.882;2023-03-03T05:44:14;2.30;99.90
75210;DHT22;63796;53.136;14.882;2023-03-03T05:46:42;2.30;99.90
75210;DHT22;63796;53.136;14.882;2023-03-03T05:49:09;2.40;99.90
75210;DHT22;63796;53.136;14.882;2023-03-03T05:51:37;2.30;99.90
75210;DHT22;63796;53.136;14.882;2023-03-03T05:54:04;2.30;99.90
75210;DHT22;63796;53.136;14.882;2023-03-03T05:56:31;2.40;99.90
75210;DHT22;63796;53.136;14.882;2023-03-03T05:58:58;2.40;99.90
75210;DHT22;63796;53.136;14.882;2023-03-03T06:01:26;2.40;99.90
75210;DHT22;63796;53.136;14.882;2023-03-03T06:03:55;2.40;99.90
75210;DHT22;63796;53.136;14.882;2023-03-03T06:06:22;2.50;99.90
75210;DHT22;63796;53.136;14.882;2023-03-03T06:08:49;2.50;99.90
75210;DHT22;63796;53.136;14.882;2023-03-03T06:11:16;2.50;99.90
75210;DHT22;63796;53.136;14.882;2023-03-03T06:13:45;2.40;99.90
75210;DHT22;63796;53.136;14.882;2023-03-03T06:16:12;2.40;99.90
75210;DHT22;63796;53.136;14.882;2023-03-03T06:18:39;2.20;99.90
75210;DHT22;63796;53.136;14.882;2023-03-03T06:21:07;2.30;99.90
75210;DHT22;63796;53.136;14.882;2023-03-03T06:23:34;2.20;99.90
75210;DHT22;63796;53.136;14.882;2023-03-03T06:26:01;2.30;99.90
75210;DHT22;63796;53.136;14.882;2023-03-03T06:28:28;2.40;99.90
75210;DHT22;63796;53.136;14.882;2023-03-03T06:30:56;2.20;99.90
75210;DHT22;63796;53.136;14.882;2023-03-03T06:33:24;2.40;99.90
75210;DHT22;63796;53.136;14.882;2023-03-03T06:35:51;2.40;99.90
75210;DHT22;63796;53.136;14.882;2023-03-03T06:38:19;2.40;99.90
75210;DHT22;63796;53.136;14.882;2023-03-03T06:40:47;2.40;99.90
75210;DHT22;63796;53.136;14.882;2023-03-03T06:43:14;2.50;99.90
75210;DHT22;63796;53.136;14.882;2023-03-03T06:45:41;2.50;99.90
75210;DHT22;63796;53.136;14.882;2023-03-03T06:48:11;2.50;99.90
75210;DHT22;63796;53.136;14.882;2023-03-03T06:50:38;2.50;99.90
75210;DHT22;63796;53.136;14.882;2023-03-03T06:53:09;2.50;99.90
75210;DHT22;63796;53.136;14.882;2023-03-03T06:55:38;2.40;99.90
75210;DHT22;63796;53.136;14.882;2023-03-03T06:58:14;2.40;99.90
75210;DHT22;63796;53.136;14.882;2023-03-03T07:00:44;2.60;99.90
75210;DHT22;63796;53.136;14.882;2023-03-03T07:03:20;2.60;99.90
75210;DHT22;63796;53.136;14.882;2023-03-03T07:05:50;2.60;99.90
75210;DHT22;63796;53.136;14.882;2023-03-03T07:08:20;2.60;99.90
75210;DHT22;63796;53.136;14.882;2023-03-03T07:10:49;2.60;99.90
75210;DHT22;63796;53.136;14.882;2023-03-03T07:15:45;2.80;99.90
75210;DHT22;63796;53.136;14.882;2023-03-03T07:18:33;2.60;99.90
75210;DHT22;63796;53.136;14.882;2023-03-03T07:21:21;2.60;99.90
75210;DHT22;63796;53.136;14.882;2023-03-03T07:23:57;2.70;99.90
75210;DHT22;63796;53.136;14.882;2023-03-03T07:26:30;2.80;99.90
75210;DHT22;63796;53.136;14.882;2023-03-03T07:29:03;2.90;99.90
75210;DHT22;63796;53.136;14.882;2023-03-03T07:31:45;2.90;99.90
75210;DHT22;63796;53.136;14.882;2023-03-03T07:39:47;3.00;99.90
75210;DHT22;63796;53.136;14.882;2023-03-03T07:44:46;3.10;99.90
75210;DHT22;63796;53.136;14.882;2023-03-03T07:47:21;3.10;99.90
75210;DHT22;63796;53.136;14.882;2023-03-03T07:49:54;3.20;99.90
75210;DHT22;63796;53.136;14.882;2023-03-03T07:52:27;3.20;99.90
75210;DHT22;63796;53.136;14.882;2023-03-03T07:54:56;3.10;99.90
75210;DHT22;63796;53.136;14.882;2023-03-03T08:05:26;3.30;99.90
75210;DHT22;63796;53.136;14.882;2023-03-03T08:08:10;3.20;99.90
75210;DHT22;63796;53.136;14.882;2023-03-03T08:11:02;3.40;99.90
75210;DHT22;63796;53.136;14.882;2023-03-03T08:21:12;3.30;99.90
75210;DHT22;63796;53.136;14.882;2023-03-03T08:23:39;3.30;99.90
75210;DHT22;63796;53.136;14.882;2023-03-03T08:26:07;3.40;99.90
75210;DHT22;63796;53.136;14.882;2023-03-03T08:28:35;3.50;99.90
75210;DHT22;63796;53.136;14.882;2023-03-03T08:31:02;3.40;99.90
75210;DHT22;63796;53.136;14.882;2023-03-03T08:33:44;3.40;99.90
75210;DHT22;63796;53.136;14.882;2023-03-03T08:36:12;3.40;99.90
75210;DHT22;63796;53.136;14.882;2023-03-03T08:38:39;3.30;99.90
75210;DHT22;63796;53.136;14.882;2023-03-03T08:41:07;3.20;99.90
75210;DHT22;63796;53.136;14.882;2023-03-03T08:43:34;3.40;99.90
75210;DHT22;63796;53.136;14.882;2023-03-03T08:46:02;3.30;99.90
75210;DHT22;63796;53.136;14.882;2023-03-03T08:48:31;3.30;99.90
75210;DHT22;63796;53.136;14.882;2023-03-03T08:50:59;3.40;99.90
75210;DHT22;63796;53.136;14.882;2023-03-03T08:53:27;3.40;99.90
75210;DHT22;63796;53.136;14.882;2023-03-03T08:55:55;3.30;99.90
75210;DHT22;63796;53.136;14.882;2023-03-03T08:58:22;3.40;99.90
75210;DHT22;63796;53.136;14.882;2023-03-03T09:01:00;3.30;99.90
75210;DHT22;63796;53.136;14.882;2023-03-03T09:03:27;3.40;99.90
75210;DHT22;63796;53.136;14.882;2023-03-03T09:05:55;3.70;99.90
75210;DHT22;63796;53.136;14.882;2023-03-03T09:08:22;3.60;99.90
75210;DHT22;63796;53.136;14.882;2023-03-03T09:10:50;3.50;99.90
75210;DHT22;63796;53.136;14.882;2023-03-03T09:13:17;3.30;99.90
75210;DHT22;63796;53.136;14.882;2023-03-03T09:15:46;3.50;99.90
75210;DHT22;63796;53.136;14.882;2023-03-03T09:23:52;4.00;99.90
75210;DHT22;63796;53.136;14.882;2023-03-03T09:26:25;3.90;99.90
75210;DHT22;63796;53.136;14.882;2023-03-03T09:31:44;4.10;99.90
75210;DHT22;63796;53.136;14.882;2023-03-03T09:35:00;4.20;99.90
75210;DHT22;63796;53.136;14.882;2023-03-03T09:39:47;4.20;99.90
75210;DHT22;63796;53.136;14.882;2023-03-03T09:47:55;4.00;99.90
75210;DHT22;63796;53.136;14.882;2023-03-03T09:50:47;4.20;99.90
75210;DHT22;63796;53.136;14.882;2023-03-03T09:53:30;4.10;99.90
75210;DHT22;63796;53.136;14.882;2023-03-03T09:56:55;4.10;99.90
75210;DHT22;63796;53.136;14.882;2023-03-03T10:07:26;4.20;99.90
75210;DHT22;63796;53.136;14.882;2023-03-03T10:18:33;4.30;99.90
75210;DHT22;63796;53.136;14.882;2023-03-03T10:24:55;4.20;99.90
75210;DHT22;63796;53.136;14.882;2023-03-03T10:29:48;4.60;99.90
75210;DHT22;63796;53.136;14.882;2023-03-03T10:33:11;4.80;99.90
75210;DHT22;63796;53.136;14.882;2023-03-03T10:35:59;4.70;99.90
75210;DHT22;63796;53.136;14.882;2023-03-03T10:43:56;4.90;99.90
75210;DHT22;63796;53.136;14.882;2023-03-03T10:46:36;4.80;99.90
75210;DHT22;63796;53.136;14.882;2023-03-03T10:49:13;4.90;99.90
75210;DHT22;63796;53.136;14.882;2023-03-03T11:06:13;5.00;99.90
75210;DHT22;63796;53.136;14.882;2023-03-03T11:08:45;5.00;99.90
75210;DHT22;63796;53.136;14.882;2023-03-03T11:14:08;4.70;99.90
75210;DHT22;63796;53.136;14.882;2023-03-03T11:19:47;4.70;99.90
75210;DHT22;63796;53.136;14.882;2023-03-03T11:22:22;4.70;99.90
75210;DHT22;63796;53.136;14.882;2023-03-03T11:25:02;5.00;99.90
75210;DHT22;63796;53.136;14.882;2023-03-03T11:27:46;5.10;99.90
75210;DHT22;63796;53.136;14.882;2023-03-03T11:30:26;5.00;99.90
75210;DHT22;63796;53.136;14.882;2023-03-03T11:35:50;5.20;99.90
75210;DHT22;63796;53.136;14.882;2023-03-03T11:38:43;5.20;99.90
75210;DHT22;63796;53.136;14.882;2023-03-03T11:44:16;5.10;99.90
75210;DHT22;63796;53.136;14.882;2023-03-03T11:46:48;4.90;99.90
75210;DHT22;63796;53.136;14.882;2023-03-03T11:52:05;4.70;99.90
75210;DHT22;63796;53.136;14.882;2023-03-03T11:57:45;4.80;99.90
75210;DHT22;63796;53.136;14.882;2023-03-03T12:00:21;5.00;99.90
75210;DHT22;63796;53.136;14.882;2023-03-03T12:03:15;5.40;99.90
75210;DHT22;63796;53.136;14.882;2023-03-03T12:22:21;5.60;99.90
75210;DHT22;63796;53.136;14.882;2023-03-03T12:24:54;5.40;99.90
75210;DHT22;63796;53.136;14.882;2023-03-03T12:30:55;5.40;99.90
75210;DHT22;63796;53.136;14.882;2023-03-03T12:38:56;6.00;99.90
75210;DHT22;63796;53.136;14.882;2023-03-03T12:55:44;6.30;99.90
75210;DHT22;63796;53.136;14.882;2023-03-03T13:04:12;6.00;99.90
75210;DHT22;63796;53.136;14.882;2023-03-03T13:23:45;6.10;99.90
75210;DHT22;63796;53.136;14.882;2023-03-03T13:26:24;6.20;99.90
75210;DHT22;63796;53.136;14.882;2023-03-03T13:31:32;6.40;99.90
75210;DHT22;63796;53.136;14.882;2023-03-03T13:34:03;6.40;99.90
75210;DHT22;63796;53.136;14.882;2023-03-03T13:36:37;6.20;99.90
75210;DHT22;63796;53.136;14.882;2023-03-03T13:39:16;6.20;99.90
75210;DHT22;63796;53.136;14.882;2023-03-03T13:41:56;6.20;99.90
75210;DHT22;63796;53.136;14.882;2023-03-03T13:52:37;6.30;99.90
75210;DHT22;63796;53.136;14.882;2023-03-03T14:01:11;6.20;99.90
75210;DHT22;63796;53.136;14.882;2023-03-03T14:06:23;6.30;99.90
75210;DHT22;63796;53.136;14.882;2023-03-03T14:09:02;6.50;99.90
75210;DHT22;63796;53.136;14.882;2023-03-03T14:17:01;6.30;99.90
75210;DHT22;63796;53.136;14.882;2023-03-03T14:19:43;6.30;99.90
75210;DHT22;63796;53.136;14.882;2023-03-03T14:22:21;6.10;99.90
75210;DHT22;63796;53.136;14.882;2023-03-03T14:30:46;6.00;99.90
75210;DHT22;63796;53.136;14.882;2023-03-03T14:38:23;5.80;99.90
75210;DHT22;63796;53.136;14.882;2023-03-03T14:43:44;6.00;99.90
75210;DHT22;63796;53.136;14.882;2023-03-03T14:48:54;6.10;99.90
75210;DHT22;63796;53.136;14.882;2023-03-03T14:51:24;6.00;99.90
75210;DHT22;63796;53.136;14.882;2023-03-03T14:53:55;5.90;99.90
75210;DHT22;63796;53.136;14.882;2023-03-03T14:56:28;6.00;99.90
75210;DHT22;63796;53.136;14.882;2023-03-03T15:01:46;5.90;99.90
75210;DHT22;63796;53.136;14.882;2023-03-03T15:06:42;5.70;99.90
75210;DHT22;63796;53.136;14.882;2023-03-03T15:11:50;5.70;99.90
75210;DHT22;63796;53.136;14.882;2023-03-03T15:14:19;5.70;99.90
75210;DHT22;63796;53.136;14.882;2023-03-03T15:16:52;5.50;99.90
75210;DHT22;63796;53.136;14.882;2023-03-03T15:24:57;5.40;99.90
75210;DHT22;63796;53.136;14.882;2023-03-03T15:27:38;5.20;99.90
75210;DHT22;63796;53.136;14.882;2023-03-03T15:36:03;5.30;99.90
75210;DHT22;63796;53.136;14.882;2023-03-03T15:38:44;5.20;99.90
75210;DHT22;63796;53.136;14.882;2023-03-03T15:44:14;5.30;99.90
75210;DHT22;63796;53.136;14.882;2023-03-03T15:49:40;5.20;99.90
75210;DHT22;63796;53.136;14.882;2023-03-03T16:00:22;5.10;99.90
75210;DHT22;63796;53.136;14.882;2023-03-03T16:05:45;5.10;99.90
75210;DHT22;63796;53.136;14.882;2023-03-03T16:08:21;5.00;99.90
75210;DHT22;63796;53.136;14.882;2023-03-03T16:19:12;4.70;99.90
75210;DHT22;63796;53.136;14.882;2023-03-03T16:27:27;4.80;99.90
75210;DHT22;63796;53.136;14.882;2023-03-03T16:38:02;4.80;99.90
75210;DHT22;63796;53.136;14.882;2023-03-03T16:40:37;4.80;99.90
75210;DHT22;63796;53.136;14.882;2023-03-03T16:54:10;4.60;99.90
75210;DHT22;63796;53.136;14.882;2023-03-03T16:56:51;4.70;99.90
75210;DHT22;63796;53.136;14.882;2023-03-03T17:02:26;4.50;99.90
75210;DHT22;63796;53.136;14.882;2023-03-03T17:05:16;4.50;99.90
75210;DHT22;63796;53.136;14.882;2023-03-03T17:08:15;4.50;99.90
75210;DHT22;63796;53.136;14.882;2023-03-03T17:10:50;4.60;99.90
75210;DHT22;63796;53.136;14.882;2023-03-03T17:19:08;4.40;99.90
75210;DHT22;63796;53.136;14.882;2023-03-03T17:25:02;4.50;99.90
75210;DHT22;63796;53.136;14.882;2023-03-03T17:36:18;4.50;99.90
75210;DHT22;63796;53.136;14.882;2023-03-03T17:39:15;4.50;99.90
75210;DHT22;63796;53.136;14.882;2023-03-03T17:44:54;4.40;99.90
75210;DHT22;63796;53.136;14.882;2023-03-03T17:50:10;4.50;99.90
75210;DHT22;63796;53.136;14.882;2023-03-03T18:01:10;4.40;99.90
75210;DHT22;63796;53.136;14.882;2023-03-03T18:09:38;4.50;99.90
75210;DHT22;63796;53.136;14.882;2023-03-03T18:12:34;4.40;99.90
75210;DHT22;63796;53.136;14.882;2023-03-03T18:22:04;4.30;99.90
75210;DHT22;63796;53.136;14.882;2023-03-03T18:24:53;4.40;99.90
75210;DHT22;63796;53.136;14.882;2023-03-03T18:32:40;4.40;99.90
75210;DHT22;63796;53.136;14.882;2023-03-03T18:35:36;4.40;99.90
75210;DHT22;63796;53.136;14.882;2023-03-03T18:40:50;4.40;99.90
75210;DHT22;63796;53.136;14.882;2023-03-03T19:04:35;4.40;99.90
75210;DHT22;63796;53.136;14.882;2023-03-03T19:12:52;4.50;99.90
75210;DHT22;63796;53.136;14.882;2023-03-03T19:20:48;4.60;99.90
75210;DHT22;63796;53.136;14.882;2023-03-03T19:23:32;4.60;99.90
75210;DHT22;63796;53.136;14.882;2023-03-03T19:26:25;4.60;99.90
75210;DHT22;63796;53.136;14.882;2023-03-03T19:34:31;4.70;99.90
75210;DHT22;63796;53.136;14.882;2023-03-03T19:37:15;4.70;99.90
75210;DHT22;63796;53.136;14.882;2023-03-03T19:45:45;4.70;99.90
75210;DHT22;63796;53.136;14.882;2023-03-03T19:48:24;4.70;99.90
75210;DHT22;63796;53.136;14.882;2023-03-03T20:04:33;4.70;99.90
75210;DHT22;63796;53.136;14.882;2023-03-03T20:16:01;4.70;99.90
75210;DHT22;63796;53.136;14.882;2023-03-03T20:27:07;4.60;99.90
75210;DHT22;63796;53.136;14.882;2023-03-03T20:34:54;4.70;99.90
75210;DHT22;63796;53.136;14.882;2023-03-03T20:40:09;4.60;99.90
75210;DHT22;63796;53.136;14.882;2023-03-03T20:42:55;4.50;99.90
75210;DHT22;63796;53.136;14.882;2023-03-03T20:57:24;4.50;99.90
75210;DHT22;63796;53.136;14.882;2023-03-03T21:00:02;4.60;99.90
75210;DHT22;63796;53.136;14.882;2023-03-03T21:07:53;4.60;99.90
75210;DHT22;63796;53.136;14.882;2023-03-03T21:10:31;4.50;99.90
75210;DHT22;63796;53.136;14.882;2023-03-03T21:19:05;4.50;99.90
75210;DHT22;63796;53.136;14.882;2023-03-03T21:21:37;4.50;99.90
75210;DHT22;63796;53.136;14.882;2023-03-03T21:24:12;4.40;99.90
75210;DHT22;63796;53.136;14.882;2023-03-03T21:26:49;4.30;99.90
75210;DHT22;63796;53.136;14.882;2023-03-03T21:31:54;4.30;99.90
75210;DHT22;63796;53.136;14.882;2023-03-03T21:36:57;4.20;99.90
75210;DHT22;63796;53.136;14.882;2023-03-03T21:39:27;4.10;99.90
75210;DHT22;63796;53.136;14.882;2023-03-03T21:41:59;4.00;99.90
75210;DHT22;63796;53.136;14.882;2023-03-03T21:44:39;3.90;99.90
75210;DHT22;63796;53.136;14.882;2023-03-03T21:47:25;3.80;99.90
75210;DHT22;63796;53.136;14.882;2023-03-03T21:49:55;3.80;99.90
75210;DHT22;63796;53.136;14.882;2023-03-03T21:52:27;3.80;99.90
75210;DHT22;63796;53.136;14.882;2023-03-03T21:54:57;3.80;99.90
75210;DHT22;63796;53.136;14.882;2023-03-03T21:57:27;3.80;99.90
75210;DHT22;63796;53.136;14.882;2023-03-03T21:59:57;3.70;99.90
75210;DHT22;63796;53.136;14.882;2023-03-03T22:02:26;3.70;99.90
75210;DHT22;63796;53.136;14.882;2023-03-03T22:04:57;3.60;99.90
75210;DHT22;63796;53.136;14.882;2023-03-03T22:07:28;3.60;99.90
75210;DHT22;63796;53.136;14.882;2023-03-03T22:09:57;3.60;99.90
75210;DHT22;63796;53.136;14.882;2023-03-03T22:12:26;3.60;99.90
75210;DHT22;63796;53.136;14.882;2023-03-03T22:14:54;3.60;99.90
75210;DHT22;63796;53.136;14.882;2023-03-03T22:17:25;3.60;99.90
75210;DHT22;63796;53.136;14.882;2023-03-03T22:19:54;3.50;99.90
75210;DHT22;63796;53.136;14.882;2023-03-03T22:22:22;3.40;99.90
75210;DHT22;63796;53.136;14.882;2023-03-03T22:24:59;3.40;99.90
75210;DHT22;63796;53.136;14.882;2023-03-03T22:27:27;3.30;99.90
75210;DHT22;63796;53.136;14.882;2023-03-03T22:29:55;3.30;99.90
75210;DHT22;63796;53.136;14.882;2023-03-03T22:32:24;3.30;99.90
75210;DHT22;63796;53.136;14.882;2023-03-03T22:34:52;3.30;99.90
75210;DHT22;63796;53.136;14.882;2023-03-03T22:37:20;3.20;99.90
75210;DHT22;63796;53.136;14.882;2023-03-03T22:39:47;3.30;99.90
75210;DHT22;63796;53.136;14.882;2023-03-03T22:42:15;3.20;99.90
75210;DHT22;63796;53.136;14.882;2023-03-03T22:44:43;3.20;99.90
75210;DHT22;63796;53.136;14.882;2023-03-03T22:47:11;3.20;99.90
75210;DHT22;63796;53.136;14.882;2023-03-03T22:49:42;3.10;99.90
75210;DHT22;63796;53.136;14.882;2023-03-03T22:52:12;3.10;99.90
75210;DHT22;63796;53.136;14.882;2023-03-03T22:54:39;3.20;99.90
75210;DHT22;63796;53.136;14.882;2023-03-03T22:57:07;3.20;99.90
75210;DHT22;63796;53.136;14.882;2023-03-03T22:59:35;3.20;99.90
75210;DHT22;63796;53.136;14.882;2023-03-03T23:02:03;3.20;99.90
75210;DHT22;63796;53.136;14.882;2023-03-03T23:04:30;3.20;99.90
75210;DHT22;63796;53.136;14.882;2023-03-03T23:06:59;3.10;99.90
75210;DHT22;63796;53.136;14.882;2023-03-03T23:09:27;3.10;99.90
75210;DHT22;63796;53.136;14.882;2023-03-03T23:11:54;3.10;99.90
75210;DHT22;63796;53.136;14.882;2023-03-03T23:14:22;3.00;99.90
75210;DHT22;63796;53.136;14.882;2023-03-03T23:16:53;3.00;99.90
75210;DHT22;63796;53.136;14.882;2023-03-03T23:19:23;3.00;99.90
75210;DHT22;63796;53.136;14.882;2023-03-03T23:21:58;3.10;99.90
75210;DHT22;63796;53.136;14.882;2023-03-03T23:24:26;3.00;99.90
75210;DHT22;63796;53.136;14.882;2023-03-03T23:26:56;3.00;99.90
75210;DHT22;63796;53.136;14.882;2023-03-03T23:29:23;2.90;99.90
75210;DHT22;63796;53.136;14.882;2023-03-03T23:31:51;2.90;99.90
75210;DHT22;63796;53.136;14.882;2023-03-03T23:34:20;2.80;99.90
75210;DHT22;63796;53.136;14.882;2023-03-03T23:36:48;2.90;99.90